sensor_id;sensor_type;location;lat;lon;timestamp;pressure;altitude;pressure_sealevel;temperature;humidity
60697;BME280;46536;54.376;19.858;2022-08-04T00:07:46;101835.13;;;20.84;51.97
60697;BME280;46536;54.376;19.858;2022-08-04T00:10:58;101837.73;;;20.79;52.07
60697;BME280;46536;54.376;19.858;2022-08-04T00:20:54;101837.30;;;20.66;52.29
60697;BME280;46536;54.376;19.858;2022-08-04T00:23:56;101828.71;;;20.65;52.35
60697;BME280;46536;54.376;19.858;2022-08-04T00:29:50;101828.11;;;20.60;52.36
60697;BME280;46536;54.376;19.858;2022-08-04T00:32:49;101830.04;;;20.58;52.39
60697;BME280;46536;54.376;19.858;2022-08-04T00:49:49;101824.74;;;20.36;52.97
60697;BME280;46536;54.376;19.858;2022-08-04T00:57:02;101826.02;;;20.24;52.93
60697;BME280;46536;54.376;19.858;2022-08-04T01:17:31;101832.89;;;20.15;53.31
60697;BME280;46536;54.376;19.858;2022-08-04T01:35:06;101825.41;;;20.02;53.58
60697;BME280;46536;54.376;19.858;2022-08-04T01:42:11;101824.66;;;19.93;53.77
60697;BME280;46536;54.376;19.858;2022-08-04T01:45:38;101823.27;;;19.93;53.75
60697;BME280;46536;54.376;19.858;2022-08-04T01:52:10;101821.21;;;19.92;53.77
60697;BME280;46536;54.376;19.858;2022-08-04T01:58:56;101818.34;;;19.90;53.91
60697;BME280;46536;54.376;19.858;2022-08-04T02:01:54;101820.84;;;19.89;54.20
60697;BME280;46536;54.376;19.858;2022-08-04T02:04:38;101818.31;;;19.87;54.35
60697;BME280;46536;54.376;19.858;2022-08-04T02:11:29;101819.61;;;19.86;54.32
60697;BME280;46536;54.376;19.858;2022-08-04T02:36:49;101828.62;;;19.76;54.90
60697;BME280;46536;54.376;19.858;2022-08-04T02:43:32;101835.17;;;19.73;54.95
60697;BME280;46536;54.376;19.858;2022-08-04T02:46:50;101833.78;;;19.70;55.03
60697;BME280;46536;54.376;19.858;2022-08-04T02:49:40;101830.38;;;19.70;55.06
60697;BME280;46536;54.376;19.858;2022-08-04T02:53:12;101826.89;;;19.73;55.05
60697;BME280;46536;54.376;19.858;2022-08-04T02:56:19;101823.80;;;19.74;55.02
60697;BME280;46536;54.376;19.858;2022-08-04T03:06:48;101815.77;;;19.79;54.98
60697;BME280;46536;54.376;19.858;2022-08-04T03:11:09;101817.41;;;19.82;54.98
60697;BME280;46536;54.376;19.858;2022-08-04T04:17:17;101830.79;;;20.06;56.17
60697;BME280;46536;54.376;19.858;2022-08-04T04:20:48;101831.45;;;20.13;56.34
60697;BME280;46536;54.376;19.858;2022-08-04T04:35:21;101836.43;;;20.42;56.79
60697;BME280;46536;54.376;19.858;2022-08-04T04:39:16;101842.23;;;20.49;56.84
60697;BME280;46536;54.376;19.858;2022-08-04T04:49:13;101849.88;;;20.71;56.40
60697;BME280;46536;54.376;19.858;2022-08-04T04:52:29;101854.35;;;20.78;56.46
60697;BME280;46536;54.376;19.858;2022-08-04T04:59:27;101857.30;;;20.96;56.49
60697;BME280;46536;54.376;19.858;2022-08-04T05:06:13;101859.63;;;21.18;56.56
60697;BME280;46536;54.376;19.858;2022-08-04T05:14:00;101859.52;;;21.41;56.43
60697;BME280;46536;54.376;19.858;2022-08-04T05:21:03;101873.00;;;21.56;56.33
60697;BME280;46536;54.376;19.858;2022-08-04T05:34:29;101862.20;;;21.91;55.77
60697;BME280;46536;54.376;19.858;2022-08-04T05:37:47;101862.45;;;21.96;55.69
60697;BME280;46536;54.376;19.858;2022-08-04T05:41:00;101858.10;;;22.03;55.40
60697;BME280;46536;54.376;19.858;2022-08-04T05:44:21;101860.36;;;22.11;55.41
60697;BME280;46536;54.376;19.858;2022-08-04T05:47:38;101858.06;;;22.19;55.14
60697;BME280;46536;54.376;19.858;2022-08-04T05:54:07;101867.15;;;22.42;55.25
60697;BME280;46536;54.376;19.858;2022-08-04T05:57:26;101866.60;;;22.55;54.74
60697;BME280;46536;54.376;19.858;2022-08-04T06:00:39;101869.09;;;22.68;54.63
60697;BME280;46536;54.376;19.858;2022-08-04T06:03:40;101868.98;;;22.80;54.64
60697;BME280;46536;54.376;19.858;2022-08-04T06:07:08;101871.97;;;22.91;54.24
60697;BME280;46536;54.376;19.858;2022-08-04T06:13:35;101873.98;;;23.10;53.69
60697;BME280;46536;54.376;19.858;2022-08-04T06:16:58;101878.54;;;23.20;53.73
60697;BME280;46536;54.376;19.858;2022-08-04T06:24:09;101881.69;;;23.40;53.06
60697;BME280;46536;54.376;19.858;2022-08-04T06:29:57;101884.30;;;23.66;52.54
60697;BME280;46536;54.376;19.858;2022-08-04T06:33:09;101879.48;;;23.76;52.51
60697;BME280;46536;54.376;19.858;2022-08-04T06:36:36;101876.97;;;23.88;52.06
60697;BME280;46536;54.376;19.858;2022-08-04T06:39:55;101879.26;;;23.98;51.90
60697;BME280;46536;54.376;19.858;2022-08-04T06:42:57;101876.04;;;24.08;51.87
60697;BME280;46536;54.376;19.858;2022-08-04T06:45:56;101880.45;;;24.20;52.00
60697;BME280;46536;54.376;19.858;2022-08-04T06:49:15;101874.40;;;24.32;51.54
60697;BME280;46536;54.376;19.858;2022-08-04T06:55:55;101870.87;;;24.55;51.15
60697;BME280;46536;54.376;19.858;2022-08-04T06:59:03;101875.21;;;24.72;51.29
60697;BME280;46536;54.376;19.858;2022-08-04T07:01:59;101876.51;;;24.85;51.11
60697;BME280;46536;54.376;19.858;2022-08-04T07:04:52;101875.14;;;24.96;51.12
60697;BME280;46536;54.376;19.858;2022-08-04T07:07:58;101870.23;;;25.07;50.40
60697;BME280;46536;54.376;19.858;2022-08-04T07:11:21;101868.80;;;25.18;50.16
60697;BME280;46536;54.376;19.858;2022-08-04T07:14:18;101865.13;;;25.30;50.12
60697;BME280;46536;54.376;19.858;2022-08-04T07:17:12;101862.59;;;25.42;49.74
60697;BME280;46536;54.376;19.858;2022-08-04T07:19:56;101861.05;;;25.56;49.72
60697;BME280;46536;54.376;19.858;2022-08-04T07:23:10;101858.48;;;25.69;49.13
60697;BME280;46536;54.376;19.858;2022-08-04T07:29:34;101849.75;;;25.88;48.67
60697;BME280;46536;54.376;19.858;2022-08-04T07:33:00;101853.88;;;25.98;48.18
60697;BME280;46536;54.376;19.858;2022-08-04T07:35:34;101851.33;;;26.09;48.38
60697;BME280;46536;54.376;19.858;2022-08-04T07:39:01;101847.59;;;26.22;48.91
60697;BME280;46536;54.376;19.858;2022-08-04T07:41:48;101849.73;;;26.34;48.56
60697;BME280;46536;54.376;19.858;2022-08-04T07:44:49;101851.89;;;26.45;47.93
60697;BME280;46536;54.376;19.858;2022-08-04T07:47:35;101848.68;;;26.54;48.05
60697;BME280;46536;54.376;19.858;2022-08-04T07:53:21;101848.30;;;26.78;48.55
60697;BME280;46536;54.376;19.858;2022-08-04T07:56:19;101844.65;;;26.93;48.04
60697;BME280;46536;54.376;19.858;2022-08-04T07:59:07;101846.84;;;27.07;47.61
60697;BME280;46536;54.376;19.858;2022-08-04T08:02:00;101848.14;;;27.19;47.07
60697;BME280;46536;54.376;19.858;2022-08-04T08:05:09;101853.00;;;27.32;47.31
60697;BME280;46536;54.376;19.858;2022-08-04T08:08:24;101850.51;;;27.48;46.56
60697;BME280;46536;54.376;19.858;2022-08-04T08:11:54;101850.60;;;27.58;46.45
60697;BME280;46536;54.376;19.858;2022-08-04T08:15:22;101847.35;;;27.73;46.47
60697;BME280;46536;54.376;19.858;2022-08-04T08:18:24;101846.54;;;27.84;46.28
60697;BME280;46536;54.376;19.858;2022-08-04T08:21:28;101846.09;;;27.95;46.29
60697;BME280;46536;54.376;19.858;2022-08-04T08:24:39;101849.35;;;28.06;45.73
60697;BME280;46536;54.376;19.858;2022-08-04T08:28:07;101850.09;;;28.13;45.81
60697;BME280;46536;54.376;19.858;2022-08-04T08:31:01;101844.23;;;28.22;45.43
60697;BME280;46536;54.376;19.858;2022-08-04T08:35:11;101841.34;;;28.32;45.54
60697;BME280;46536;54.376;19.858;2022-08-04T08:38:00;101840.15;;;28.43;45.05
60697;BME280;46536;54.376;19.858;2022-08-04T08:40:58;101845.05;;;28.52;45.12
60697;BME280;46536;54.376;19.858;2022-08-04T08:44:42;101849.45;;;28.64;44.78
60697;BME280;46536;54.376;19.858;2022-08-04T09:11:55;101842.23;;;30.03;41.07
60697;BME280;46536;54.376;19.858;2022-08-04T09:14:57;101837.77;;;30.25;40.86
60697;BME280;46536;54.376;19.858;2022-08-04T09:18:12;101832.83;;;30.45;39.71
60697;BME280;46536;54.376;19.858;2022-08-04T09:24:24;101829.82;;;30.86;38.33
60697;BME280;46536;54.376;19.858;2022-08-04T09:27:48;101827.81;;;31.05;38.49
60697;BME280;46536;54.376;19.858;2022-08-04T09:31:03;101831.40;;;31.34;38.05
60697;BME280;46536;54.376;19.858;2022-08-04T09:34:19;101827.54;;;31.56;37.09
60697;BME280;46536;54.376;19.858;2022-08-04T09:40:31;101832.35;;;31.82;34.86
60697;BME280;46536;54.376;19.858;2022-08-04T09:43:42;101832.09;;;31.90;33.79
60697;BME280;46536;54.376;19.858;2022-08-04T09:57:03;101821.42;;;32.33;33.14
60697;BME280;46536;54.376;19.858;2022-08-04T10:00:12;101826.11;;;32.33;32.09
60697;BME280;46536;54.376;19.858;2022-08-04T10:03:01;101824.23;;;32.39;32.67
60697;BME280;46536;54.376;19.858;2022-08-04T10:05:54;101828.01;;;32.45;32.93
60697;BME280;46536;54.376;19.858;2022-08-04T10:08:58;101826.95;;;32.50;32.67
60697;BME280;46536;54.376;19.858;2022-08-04T10:25:11;101818.09;;;32.69;32.47
60697;BME280;46536;54.376;19.858;2022-08-04T10:35:16;101813.84;;;32.97;32.17
60697;BME280;46536;54.376;19.858;2022-08-04T10:41:53;101808.52;;;33.13;31.98
60697;BME280;46536;54.376;19.858;2022-08-04T10:45:04;101812.48;;;33.21;32.17
60697;BME280;46536;54.376;19.858;2022-08-04T10:48:01;101811.48;;;33.41;32.28
60697;BME280;46536;54.376;19.858;2022-08-04T10:51:01;101810.20;;;33.61;31.05
60697;BME280;46536;54.376;19.858;2022-08-04T11:00:36;101800.06;;;34.05;30.07
60697;BME280;46536;54.376;19.858;2022-08-04T11:06:45;101796.20;;;34.24;28.87
60697;BME280;46536;54.376;19.858;2022-08-04T11:09:16;101794.77;;;34.21;28.97
60697;BME280;46536;54.376;19.858;2022-08-04T11:12:09;101794.90;;;34.24;28.56
60697;BME280;46536;54.376;19.858;2022-08-04T11:15:11;101793.89;;;34.27;27.76
60697;BME280;46536;54.376;19.858;2022-08-04T11:25:02;101788.33;;;34.25;27.34
60697;BME280;46536;54.376;19.858;2022-08-04T11:27:54;101787.58;;;34.37;27.25
60697;BME280;46536;54.376;19.858;2022-08-04T11:31:32;101786.77;;;34.51;27.65
60697;BME280;46536;54.376;19.858;2022-08-04T11:34:32;101778.81;;;34.59;27.46
60697;BME280;46536;54.376;19.858;2022-08-04T11:37:18;101783.63;;;34.68;27.43
60697;BME280;46536;54.376;19.858;2022-08-04T11:40:19;101782.88;;;34.72;26.55
60697;BME280;46536;54.376;19.858;2022-08-04T11:43:16;101782.77;;;34.70;26.34
60697;BME280;46536;54.376;19.858;2022-08-04T11:46:27;101786.45;;;34.69;26.52
60697;BME280;46536;54.376;19.858;2022-08-04T11:52:47;101778.41;;;34.94;26.38
60697;BME280;46536;54.376;19.858;2022-08-04T11:55:42;101780.66;;;35.05;25.59
60697;BME280;46536;54.376;19.858;2022-08-04T11:58:40;101782.55;;;35.14;25.69
60697;BME280;46536;54.376;19.858;2022-08-04T12:14:24;101775.58;;;35.64;26.18
60697;BME280;46536;54.376;19.858;2022-08-04T12:17:10;101775.27;;;35.72;26.81
60697;BME280;46536;54.376;19.858;2022-08-04T12:20:25;101773.58;;;35.79;26.17
60697;BME280;46536;54.376;19.858;2022-08-04T12:23:20;101766.52;;;35.92;26.07
60697;BME280;46536;54.376;19.858;2022-08-04T12:25:59;101762.32;;;36.05;25.79
60697;BME280;46536;54.376;19.858;2022-08-04T12:30:05;101760.36;;;36.06;25.89
60697;BME280;46536;54.376;19.858;2022-08-04T12:33:30;101757.98;;;36.07;26.11
60697;BME280;46536;54.376;19.858;2022-08-04T12:37:06;101756.46;;;36.14;26.15
60697;BME280;46536;54.376;19.858;2022-08-04T12:39:50;101751.88;;;36.24;26.22
60697;BME280;46536;54.376;19.858;2022-08-04T12:43:00;101751.52;;;36.27;26.02
60697;BME280;46536;54.376;19.858;2022-08-04T12:45:55;101751.05;;;36.34;26.19
60697;BME280;46536;54.376;19.858;2022-08-04T12:48:34;101751.52;;;36.37;25.66
60697;BME280;46536;54.376;19.858;2022-08-04T12:51:12;101747.56;;;36.37;26.02
60697;BME280;46536;54.376;19.858;2022-08-04T12:54:24;101747.55;;;36.44;26.08
60697;BME280;46536;54.376;19.858;2022-08-04T12:57:05;101749.35;;;36.50;26.26
60697;BME280;46536;54.376;19.858;2022-08-04T12:59:55;101746.61;;;36.48;25.14
60697;BME280;46536;54.376;19.858;2022-08-04T13:02:38;101743.17;;;36.44;25.06
60697;BME280;46536;54.376;19.858;2022-08-04T13:05:33;101745.55;;;36.50;26.16
60697;BME280;46536;54.376;19.858;2022-08-04T13:08:07;101745.27;;;36.57;25.61
60697;BME280;46536;54.376;19.858;2022-08-04T13:10:45;101749.48;;;36.54;25.35
60697;BME280;46536;54.376;19.858;2022-08-04T13:13:44;101744.86;;;36.42;25.39
60697;BME280;46536;54.376;19.858;2022-08-04T13:16:43;101738.64;;;36.33;25.06
60697;BME280;46536;54.376;19.858;2022-08-04T13:19:14;101735.42;;;36.21;25.37
60697;BME280;46536;54.376;19.858;2022-08-04T13:21:53;101731.55;;;36.14;25.13
60697;BME280;46536;54.376;19.858;2022-08-04T13:24:37;101734.20;;;36.22;25.70
60697;BME280;46536;54.376;19.858;2022-08-04T13:27:37;101729.82;;;36.31;25.07
60697;BME280;46536;54.376;19.858;2022-08-04T13:31:22;101727.84;;;36.34;24.89
60697;BME280;46536;54.376;19.858;2022-08-04T13:34:17;101725.30;;;36.35;25.04
60697;BME280;46536;54.376;19.858;2022-08-04T13:37:07;101716.48;;;36.43;24.98
60697;BME280;46536;54.376;19.858;2022-08-04T13:39:52;101716.86;;;36.50;25.24
60697;BME280;46536;54.376;19.858;2022-08-04T13:42:26;101715.33;;;36.45;25.37
60697;BME280;46536;54.376;19.858;2022-08-04T13:45:03;101714.50;;;36.46;25.51
60697;BME280;46536;54.376;19.858;2022-08-04T13:47:45;101708.49;;;36.50;25.42
60697;BME280;46536;54.376;19.858;2022-08-04T13:50:57;101709.02;;;36.54;24.73
60697;BME280;46536;54.376;19.858;2022-08-04T13:53:44;101706.88;;;36.56;24.37
60697;BME280;46536;54.376;19.858;2022-08-04T13:56:24;101705.42;;;36.56;24.69
60697;BME280;46536;54.376;19.858;2022-08-04T13:59:00;101704.84;;;36.55;24.78
60697;BME280;46536;54.376;19.858;2022-08-04T14:01:31;101705.30;;;36.55;24.64
60697;BME280;46536;54.376;19.858;2022-08-04T14:04:17;101704.55;;;36.56;25.41
60697;BME280;46536;54.376;19.858;2022-08-04T14:07:17;101708.02;;;36.61;25.27
60697;BME280;46536;54.376;19.858;2022-08-04T14:09:52;101703.98;;;36.63;24.80
60697;BME280;46536;54.376;19.858;2022-08-04T14:12:31;101699.54;;;36.66;24.72
60697;BME280;46536;54.376;19.858;2022-08-04T14:15:36;101697.59;;;36.71;24.74
60697;BME280;46536;54.376;19.858;2022-08-04T14:19:17;101693.92;;;36.82;24.96
60697;BME280;46536;54.376;19.858;2022-08-04T14:21:35;101693.48;;;36.90;24.59
60697;BME280;46536;54.376;19.858;2022-08-04T14:24:21;101694.03;;;36.80;24.35
60697;BME280;46536;54.376;19.858;2022-08-04T14:27:14;101688.05;;;36.68;24.67
60697;BME280;46536;54.376;19.858;2022-08-04T14:29:49;101687.85;;;36.72;25.38
60697;BME280;46536;54.376;19.858;2022-08-04T14:32:25;101684.47;;;36.76;25.16
60697;BME280;46536;54.376;19.858;2022-08-04T14:35:12;101683.70;;;36.80;25.49
60697;BME280;46536;54.376;19.858;2022-08-04T14:37:55;101681.32;;;36.94;25.39
60697;BME280;46536;54.376;19.858;2022-08-04T14:40:34;101675.66;;;37.06;24.49
60697;BME280;46536;54.376;19.858;2022-08-04T14:43:08;101666.73;;;37.05;24.28
60697;BME280;46536;54.376;19.858;2022-08-04T14:45:44;101666.52;;;37.03;24.48
60697;BME280;46536;54.376;19.858;2022-08-04T14:48:28;101667.48;;;36.99;24.64
60697;BME280;46536;54.376;19.858;2022-08-04T14:51:03;101666.58;;;36.92;24.20
60697;BME280;46536;54.376;19.858;2022-08-04T14:53:36;101663.73;;;36.89;24.64
60697;BME280;46536;54.376;19.858;2022-08-04T14:56:17;101667.62;;;36.87;24.59
60697;BME280;46536;54.376;19.858;2022-08-04T14:59:17;101667.15;;;36.84;24.64
60697;BME280;46536;54.376;19.858;2022-08-04T15:01:56;101669.77;;;36.77;24.51
60697;BME280;46536;54.376;19.858;2022-08-04T15:07:56;101659.66;;;36.72;24.72
60697;BME280;46536;54.376;19.858;2022-08-04T15:10:28;101657.86;;;36.73;25.01
60697;BME280;46536;54.376;19.858;2022-08-04T15:12:58;101659.02;;;36.76;24.64
60697;BME280;46536;54.376;19.858;2022-08-04T15:15:33;101655.30;;;36.73;24.56
60697;BME280;46536;54.376;19.858;2022-08-04T15:18:09;101654.59;;;36.67;24.58
60697;BME280;46536;54.376;19.858;2022-08-04T15:20:42;101651.55;;;36.64;24.76
60697;BME280;46536;54.376;19.858;2022-08-04T15:23:12;101648.13;;;36.64;25.58
60697;BME280;46536;54.376;19.858;2022-08-04T15:25:45;101649.04;;;36.59;25.15
60697;BME280;46536;54.376;19.858;2022-08-04T15:28:18;101645.61;;;36.50;24.55
60697;BME280;46536;54.376;19.858;2022-08-04T15:30:55;101646.64;;;36.35;24.85
60697;BME280;46536;54.376;19.858;2022-08-04T15:33:38;101648.14;;;36.29;25.12
60697;BME280;46536;54.376;19.858;2022-08-04T15:36:51;101642.65;;;36.32;25.25
60697;BME280;46536;54.376;19.858;2022-08-04T15:39:44;101646.98;;;36.41;25.19
60697;BME280;46536;54.376;19.858;2022-08-04T15:45:22;101655.26;;;36.49;25.74
60697;BME280;46536;54.376;19.858;2022-08-04T15:51:23;101653.42;;;36.70;25.50
60697;BME280;46536;54.376;19.858;2022-08-04T15:57:15;101642.61;;;36.57;25.13
60697;BME280;46536;54.376;19.858;2022-08-04T15:59:56;101639.05;;;36.50;24.86
60697;BME280;46536;54.376;19.858;2022-08-04T16:05:41;101629.02;;;36.36;25.20
60697;BME280;46536;54.376;19.858;2022-08-04T16:16:45;101631.22;;;36.32;26.26
60697;BME280;46536;54.376;19.858;2022-08-04T16:22:43;101637.67;;;36.37;25.59
60697;BME280;46536;54.376;19.858;2022-08-04T16:25:48;101635.73;;;36.34;25.75
60697;BME280;46536;54.376;19.858;2022-08-04T16:28:55;101634.40;;;36.29;25.47
60697;BME280;46536;54.376;19.858;2022-08-04T16:32:20;101631.95;;;36.26;25.36
60697;BME280;46536;54.376;19.858;2022-08-04T16:34:25;101629.94;;;36.23;25.70
60697;BME280;46536;54.376;19.858;2022-08-04T16:37:40;101628.70;;;36.27;25.98
60697;BME280;46536;54.376;19.858;2022-08-04T16:40:37;101627.73;;;36.30;25.80
60697;BME280;46536;54.376;19.858;2022-08-04T16:43:17;101622.85;;;36.30;25.94
60697;BME280;46536;54.376;19.858;2022-08-04T16:46:09;101623.80;;;36.33;26.23
60697;BME280;46536;54.376;19.858;2022-08-04T16:49:08;101621.77;;;36.31;26.29
60697;BME280;46536;54.376;19.858;2022-08-04T16:52:00;101619.13;;;36.25;26.64
60697;BME280;46536;54.376;19.858;2022-08-04T16:54:57;101619.30;;;36.25;26.71
60697;BME280;46536;54.376;19.858;2022-08-04T16:57:35;101620.76;;;36.24;26.72
60697;BME280;46536;54.376;19.858;2022-08-04T17:00:36;101619.95;;;36.21;26.82
60697;BME280;46536;54.376;19.858;2022-08-04T17:03:29;101622.23;;;36.15;26.83
60697;BME280;46536;54.376;19.858;2022-08-04T17:06:25;101628.39;;;36.10;27.08
60697;BME280;46536;54.376;19.858;2022-08-04T17:09:21;101631.63;;;36.09;27.50
60697;BME280;46536;54.376;19.858;2022-08-04T17:12:05;101632.08;;;36.08;27.37
60697;BME280;46536;54.376;19.858;2022-08-04T17:14:59;101627.77;;;36.03;27.23
60697;BME280;46536;54.376;19.858;2022-08-04T17:17:38;101626.65;;;35.96;27.26
60697;BME280;46536;54.376;19.858;2022-08-04T17:23:50;101623.02;;;35.84;28.65
60697;BME280;46536;54.376;19.858;2022-08-04T17:26:49;101619.49;;;35.82;29.11
60697;BME280;46536;54.376;19.858;2022-08-04T17:29:27;101616.09;;;35.71;28.60
60697;BME280;46536;54.376;19.858;2022-08-04T17:32:16;101614.71;;;35.57;28.54
60697;BME280;46536;54.376;19.858;2022-08-04T17:35:08;101616.63;;;35.40;28.99
60697;BME280;46536;54.376;19.858;2022-08-04T17:37:42;101612.89;;;35.23;29.10
60697;BME280;46536;54.376;19.858;2022-08-04T17:40:29;101615.95;;;35.07;29.30
60697;BME280;46536;54.376;19.858;2022-08-04T17:43:08;101615.87;;;34.89;29.25
60697;BME280;46536;54.376;19.858;2022-08-04T17:46:37;101615.52;;;34.64;29.42
60697;BME280;46536;54.376;19.858;2022-08-04T17:49:20;101615.20;;;34.39;29.84
60697;BME280;46536;54.376;19.858;2022-08-04T17:51:58;101614.59;;;34.18;30.04
60697;BME280;46536;54.376;19.858;2022-08-04T17:55:09;101610.98;;;33.93;30.43
60697;BME280;46536;54.376;19.858;2022-08-04T17:58:26;101608.71;;;33.67;31.05
60697;BME280;46536;54.376;19.858;2022-08-04T18:01:10;101609.14;;;33.46;31.68
60697;BME280;46536;54.376;19.858;2022-08-04T18:04:25;101615.52;;;33.28;31.95
60697;BME280;46536;54.376;19.858;2022-08-04T18:07:21;101618.05;;;33.11;32.16
60697;BME280;46536;54.376;19.858;2022-08-04T18:10:51;101618.36;;;32.86;32.46
60697;BME280;46536;54.376;19.858;2022-08-04T18:13:51;101623.29;;;32.63;32.71
60697;BME280;46536;54.376;19.858;2022-08-04T18:16:25;101623.79;;;32.35;33.00
60697;BME280;46536;54.376;19.858;2022-08-04T18:19:15;101628.02;;;32.09;33.31
60697;BME280;46536;54.376;19.858;2022-08-04T18:22:02;101630.35;;;31.85;33.61
60697;BME280;46536;54.376;19.858;2022-08-04T18:28:11;101630.88;;;31.40;34.38
60697;BME280;46536;54.376;19.858;2022-08-04T18:30:56;101630.96;;;31.20;34.95
60697;BME280;46536;54.376;19.858;2022-08-04T18:33:55;101634.70;;;31.04;35.44
60697;BME280;46536;54.376;19.858;2022-08-04T18:37:00;101636.70;;;30.87;36.33
60697;BME280;46536;54.376;19.858;2022-08-04T18:40:29;101630.54;;;30.70;36.81
60697;BME280;46536;54.376;19.858;2022-08-04T18:43:28;101631.11;;;30.52;36.93
60697;BME280;46536;54.376;19.858;2022-08-04T18:46:27;101633.23;;;30.36;37.24
60697;BME280;46536;54.376;19.858;2022-08-04T18:49:13;101638.16;;;30.23;37.59
60697;BME280;46536;54.376;19.858;2022-08-04T18:52:32;101635.36;;;30.06;37.88
60697;BME280;46536;54.376;19.858;2022-08-04T18:55:37;101637.45;;;29.90;38.16
60697;BME280;46536;54.376;19.858;2022-08-04T18:58:42;101636.24;;;29.75;38.31
60697;BME280;46536;54.376;19.858;2022-08-04T19:01:34;101637.27;;;29.60;38.63
60697;BME280;46536;54.376;19.858;2022-08-04T19:04:55;101641.30;;;29.43;39.10
60697;BME280;46536;54.376;19.858;2022-08-04T19:07:48;101639.59;;;29.31;39.39
60697;BME280;46536;54.376;19.858;2022-08-04T19:10:33;101640.88;;;29.17;39.53
60697;BME280;46536;54.376;19.858;2022-08-04T19:13:14;101642.83;;;29.06;39.96
60697;BME280;46536;54.376;19.858;2022-08-04T19:19:06;101643.25;;;28.80;40.74
60697;BME280;46536;54.376;19.858;2022-08-04T19:22:24;101644.67;;;28.66;41.06
60697;BME280;46536;54.376;19.858;2022-08-04T19:25:09;101650.57;;;28.53;41.12
60697;BME280;46536;54.376;19.858;2022-08-04T19:28:10;101649.85;;;28.41;41.29
60697;BME280;46536;54.376;19.858;2022-08-04T19:30:48;101649.13;;;28.30;41.62
60697;BME280;46536;54.376;19.858;2022-08-04T19:36:48;101651.84;;;28.05;41.61
60697;BME280;46536;54.376;19.858;2022-08-04T19:40:11;101654.61;;;27.95;41.81
60697;BME280;46536;54.376;19.858;2022-08-04T19:43:31;101653.37;;;27.80;41.56
60697;BME280;46536;54.376;19.858;2022-08-04T19:46:09;101656.02;;;27.71;41.93
60697;BME280;46536;54.376;19.858;2022-08-04T19:49:20;101658.57;;;27.60;42.41
60697;BME280;46536;54.376;19.858;2022-08-04T19:52:59;101657.73;;;27.49;42.62
60697;BME280;46536;54.376;19.858;2022-08-04T19:55:53;101661.05;;;27.38;42.53
60697;BME280;46536;54.376;19.858;2022-08-04T19:58:25;101660.15;;;27.28;42.69
60697;BME280;46536;54.376;19.858;2022-08-04T20:01:09;101658.23;;;27.18;43.01
60697;BME280;46536;54.376;19.858;2022-08-04T20:04:17;101661.73;;;27.07;43.00
60697;BME280;46536;54.376;19.858;2022-08-04T20:07:01;101662.95;;;26.99;43.02
60697;BME280;46536;54.376;19.858;2022-08-04T20:10:07;101664.52;;;26.92;43.14
60697;BME280;46536;54.376;19.858;2022-08-04T20:13:54;101663.93;;;26.85;43.38
60697;BME280;46536;54.376;19.858;2022-08-04T20:16:25;101668.22;;;26.79;43.64
60697;BME280;46536;54.376;19.858;2022-08-04T20:19:22;101670.67;;;26.73;43.84
60697;BME280;46536;54.376;19.858;2022-08-04T20:25:34;101674.41;;;26.58;43.88
60697;BME280;46536;54.376;19.858;2022-08-04T20:31:19;101676.48;;;26.40;44.17
60697;BME280;46536;54.376;19.858;2022-08-04T20:34:49;101677.88;;;26.30;44.47
60697;BME280;46536;54.376;19.858;2022-08-04T20:38:13;101680.73;;;26.20;44.58
60697;BME280;46536;54.376;19.858;2022-08-04T20:43:50;101678.54;;;26.06;44.67
60697;BME280;46536;54.376;19.858;2022-08-04T20:46:58;101678.66;;;26.01;44.89
60697;BME280;46536;54.376;19.858;2022-08-04T20:49:39;101677.90;;;25.95;45.13
60697;BME280;46536;54.376;19.858;2022-08-04T20:52:16;101674.29;;;25.90;45.18
60697;BME280;46536;54.376;19.858;2022-08-04T20:55:14;101677.23;;;25.84;45.14
60697;BME280;46536;54.376;19.858;2022-08-04T20:58:31;101680.89;;;25.77;45.22
60697;BME280;46536;54.376;19.858;2022-08-04T21:04:53;101680.45;;;25.57;45.69
60697;BME280;46536;54.376;19.858;2022-08-04T21:08:00;101681.48;;;25.51;45.95
60697;BME280;46536;54.376;19.858;2022-08-04T21:11:01;101677.36;;;25.45;46.16
60697;BME280;46536;54.376;19.858;2022-08-04T21:14:21;101682.75;;;25.38;46.23
60697;BME280;46536;54.376;19.858;2022-08-04T21:17:42;101682.54;;;25.32;46.35
60697;BME280;46536;54.376;19.858;2022-08-04T21:20:43;101679.88;;;25.28;46.38
60697;BME280;46536;54.376;19.858;2022-08-04T21:26:53;101687.21;;;25.16;46.74
60697;BME280;46536;54.376;19.858;2022-08-04T21:33:28;101688.71;;;25.07;47.03
60697;BME280;46536;54.376;19.858;2022-08-04T21:37:15;101688.88;;;25.03;47.15
60697;BME280;46536;54.376;19.858;2022-08-04T21:40:39;101690.55;;;25.00;47.24
60697;BME280;46536;54.376;19.858;2022-08-04T21:43:57;101694.08;;;25.01;47.34
60697;BME280;46536;54.376;19.858;2022-08-04T21:47:12;101690.06;;;25.02;47.42
60697;BME280;46536;54.376;19.858;2022-08-04T21:50:22;101686.09;;;25.00;47.36
60697;BME280;46536;54.376;19.858;2022-08-04T21:53:19;101691.81;;;24.97;47.36
60697;BME280;46536;54.376;19.858;2022-08-04T21:56:48;101690.25;;;24.90;47.31
60697;BME280;46536;54.376;19.858;2022-08-04T21:59:40;101691.35;;;24.81;47.44
60697;BME280;46536;54.376;19.858;2022-08-04T22:02:33;101693.09;;;24.73;47.22
60697;BME280;46536;54.376;19.858;2022-08-04T22:05:38;101694.39;;;24.65;47.06
60697;BME280;46536;54.376;19.858;2022-08-04T22:08:35;101691.14;;;24.59;47.07